createdAt,value
2018-05-29T00:02:20.554Z,13.90
2018-05-29T00:04:50.387Z,14.50
2018-05-29T00:07:19.726Z,14.00
2018-05-29T00:09:49.214Z,13.80
2018-05-29T00:12:19.158Z,14.40
2018-05-29T00:14:47.870Z,14.40
2018-05-29T00:17:17.344Z,14.70
2018-05-29T00:19:46.013Z,14.60
2018-05-29T00:22:16.058Z,15.30
2018-05-29T00:24:45.258Z,15.40
2018-05-29T00:27:14.762Z,15.10
2018-05-29T00:29:44.321Z,15.50
2018-05-29T00:32:13.568Z,14.80
2018-05-29T00:34:42.927Z,15.20
2018-05-29T00:37:12.181Z,15.40
2018-05-29T00:39:41.482Z,15.70
2018-05-29T00:42:10.230Z,16.50
2018-05-29T00:44:38.989Z,16.70
2018-05-29T00:47:08.444Z,15.60
2018-05-29T00:49:37.288Z,16.90
2018-05-29T00:52:06.904Z,15.40
2018-05-29T00:54:37.342Z,16.40
2018-05-29T00:57:06.864Z,16.60
2018-05-29T00:59:37.340Z,15.40
2018-05-29T01:02:06.265Z,17.10
2018-05-29T01:04:37.371Z,15.00
2018-05-29T01:07:08.056Z,15.50
2018-05-29T01:09:38.143Z,17.00
2018-05-29T01:12:07.934Z,15.40
2018-05-29T01:14:37.971Z,15.70
2018-05-29T01:17:07.272Z,15.70
2018-05-29T01:19:36.413Z,15.30
2018-05-29T01:22:05.430Z,15.50
2018-05-29T01:24:34.574Z,16.00
2018-05-29T01:27:03.740Z,16.50
2018-05-29T01:29:33.331Z,15.40
2018-05-29T01:32:03.728Z,16.40
2018-05-29T01:34:33.176Z,16.10
2018-05-29T01:37:01.969Z,16.00
2018-05-29T01:39:31.488Z,15.60
2018-05-29T01:42:07.814Z,16.40
2018-05-29T01:44:36.586Z,16.40
2018-05-29T01:47:06.686Z,18.00
2018-05-29T01:49:36.377Z,15.80
2018-05-29T01:52:06.589Z,17.00
2018-05-29T01:54:35.914Z,16.80
2018-05-29T01:57:05.355Z,17.00
2018-05-29T01:59:34.175Z,17.00
2018-05-29T02:02:03.686Z,16.10
2018-05-29T02:04:33.006Z,16.00
2018-05-29T02:07:03.064Z,16.20
2018-05-29T02:09:32.595Z,16.10
2018-05-29T02:12:01.961Z,16.00
2018-05-29T02:14:31.634Z,16.60
2018-05-29T02:17:00.984Z,15.30
2018-05-29T02:19:30.019Z,15.20
2018-05-29T02:21:58.846Z,15.20
2018-05-29T02:24:28.392Z,15.80
2018-05-29T02:26:58.254Z,14.60
2018-05-29T02:29:27.364Z,14.60
2018-05-29T02:31:56.647Z,17.00
2018-05-29T02:34:26.574Z,15.90
2018-05-29T02:36:55.727Z,17.00
2018-05-29T02:39:25.011Z,15.70
2018-05-29T02:41:53.905Z,16.80
2018-05-29T02:44:23.362Z,16.60
2018-05-29T02:46:52.122Z,16.60
2018-05-29T02:49:20.908Z,16.90
2018-05-29T02:51:50.348Z,17.10
2018-05-29T02:54:20.010Z,17.50
2018-05-29T02:56:49.157Z,17.40
2018-05-29T02:59:19.705Z,18.70
2018-05-29T03:01:49.166Z,19.20
2018-05-29T03:04:17.884Z,19.20
2018-05-29T03:06:47.490Z,19.00
2018-05-29T03:09:17.599Z,19.90
2018-05-29T03:11:47.790Z,20.20
2018-05-29T03:14:17.270Z,20.10
2018-05-29T03:16:46.530Z,20.50
2018-05-29T03:19:15.678Z,20.20
2018-05-29T03:21:44.425Z,19.80
2018-05-29T03:24:13.838Z,20.60
2018-05-29T03:26:43.958Z,20.80
2018-05-29T03:29:13.116Z,20.80
2018-05-29T03:31:42.308Z,21.10
2018-05-29T03:34:12.086Z,21.40
2018-05-29T03:36:41.804Z,21.30
2018-05-29T03:39:10.692Z,21.80
2018-05-29T03:41:40.272Z,22.00
2018-05-29T03:44:09.558Z,22.70
2018-05-29T03:46:39.266Z,23.70
2018-05-29T03:49:08.788Z,23.30
2018-05-29T03:51:38.029Z,23.90
2018-05-29T03:54:07.376Z,24.10
2018-05-29T03:56:36.237Z,24.40
2018-05-29T03:59:05.610Z,24.90
2018-05-29T04:01:35.374Z,25.00
2018-05-29T04:04:04.765Z,25.30
2018-05-29T04:06:34.093Z,25.50
2018-05-29T04:09:03.580Z,25.60
2018-05-29T04:11:33.668Z,25.90
2018-05-29T04:14:03.703Z,25.80
2018-05-29T04:16:33.211Z,25.80
2018-05-29T04:19:02.084Z,25.80
2018-05-29T04:21:31.589Z,26.30
2018-05-29T04:24:00.730Z,26.40
2018-05-29T04:26:30.196Z,26.80
2018-05-29T04:28:59.277Z,27.10
2018-05-29T04:31:29.386Z,27.20
2018-05-29T04:33:58.528Z,28.20
2018-05-29T04:36:27.612Z,28.10
2018-05-29T04:38:56.885Z,27.90
2018-05-29T04:41:25.995Z,28.40
2018-05-29T04:43:55.016Z,28.80
2018-05-29T04:46:24.319Z,28.80
2018-05-29T04:48:53.640Z,29.00
2018-05-29T04:51:22.718Z,29.60
2018-05-29T04:53:52.076Z,29.90
2018-05-29T04:56:21.116Z,30.30
2018-05-29T04:58:50.429Z,30.40
2018-05-29T05:01:19.950Z,31.40
2018-05-29T05:03:49.393Z,31.70
2018-05-29T05:06:18.914Z,32.40
2018-05-29T05:08:48.127Z,32.90
2018-05-29T05:11:17.550Z,33.40
2018-05-29T05:13:46.941Z,33.60
2018-05-29T05:16:16.106Z,34.20
2018-05-29T05:18:45.362Z,34.50
2018-05-29T05:21:14.829Z,34.80
2018-05-29T05:23:43.914Z,35.00
2018-05-29T05:26:13.258Z,35.50
2018-05-29T05:28:42.695Z,35.70
2018-05-29T05:31:12.017Z,36.00
2018-05-29T05:33:41.278Z,36.40
2018-05-29T05:36:10.546Z,36.60
2018-05-29T05:38:40.626Z,36.80
2018-05-29T05:41:09.973Z,36.70
2018-05-29T05:43:39.258Z,37.30
2018-05-29T05:46:08.425Z,37.10
2018-05-29T05:48:37.490Z,37.70
2018-05-29T05:51:06.953Z,38.00
2018-05-29T05:53:37.718Z,38.30
2018-05-29T05:56:07.210Z,38.30
2018-05-29T05:58:36.508Z,38.00
2018-05-29T06:01:06.608Z,38.30
2018-05-29T06:03:35.656Z,38.20
2018-05-29T06:06:05.607Z,37.40
2018-05-29T06:08:34.967Z,37.40
2018-05-29T06:11:04.027Z,37.10
2018-05-29T06:13:33.129Z,37.00
2018-05-29T06:16:02.444Z,37.20
2018-05-29T06:18:31.733Z,37.20
2018-05-29T06:21:00.969Z,37.50
2018-05-29T06:23:30.304Z,37.40
2018-05-29T06:25:59.580Z,37.20
2018-05-29T06:28:28.664Z,37.20
2018-05-29T06:30:58.022Z,37.70
2018-05-29T06:33:27.161Z,37.40
2018-05-29T06:35:56.682Z,38.20
2018-05-29T06:38:26.015Z,38.30
2018-05-29T06:40:56.123Z,37.70
2018-05-29T06:43:25.450Z,37.70
2018-05-29T06:45:54.309Z,38.10
2018-05-29T06:48:23.554Z,37.90
2018-05-29T06:50:52.893Z,37.50
2018-05-29T06:53:22.439Z,37.20
2018-05-29T06:55:52.323Z,37.30
2018-05-29T06:58:21.669Z,37.60
2018-05-29T07:00:51.005Z,37.00
2018-05-29T07:03:20.700Z,37.50
2018-05-29T07:05:50.016Z,37.30
2018-05-29T07:08:19.404Z,37.40
2018-05-29T07:10:48.611Z,37.70
2018-05-29T07:13:17.893Z,37.20
2018-05-29T07:15:47.219Z,37.40
2018-05-29T07:18:16.533Z,37.30
2018-05-29T07:20:46.662Z,38.20
2018-05-29T07:23:15.943Z,38.20
2018-05-29T07:25:45.040Z,38.70
2018-05-29T07:28:14.085Z,38.50
2018-05-29T07:30:43.425Z,38.80
2018-05-29T07:33:12.371Z,38.90
2018-05-29T07:35:41.495Z,38.40
2018-05-29T07:38:10.960Z,38.70
2018-05-29T07:40:41.103Z,38.70
2018-05-29T07:43:10.370Z,38.60
2018-05-29T07:45:39.885Z,38.60
2018-05-29T07:48:09.325Z,39.00
2018-05-29T07:50:38.417Z,39.10
2018-05-29T07:53:07.929Z,39.40
2018-05-29T07:55:37.198Z,39.60
2018-05-29T07:58:06.337Z,39.40
2018-05-29T08:00:35.839Z,39.50
2018-05-29T08:03:05.393Z,39.10
2018-05-29T08:05:34.631Z,39.10
2018-05-29T08:08:03.742Z,38.80
2018-05-29T08:10:33.021Z,38.90
2018-05-29T08:13:02.948Z,38.90
2018-05-29T08:15:32.045Z,38.90
2018-05-29T08:18:01.040Z,38.60
2018-05-29T08:20:30.289Z,38.80
2018-05-29T08:22:59.451Z,38.60
2018-05-29T08:25:28.694Z,38.60
2018-05-29T08:27:57.690Z,36.80
2018-05-29T08:30:27.192Z,37.00
2018-05-29T08:32:56.328Z,36.80
2018-05-29T08:35:25.826Z,35.80
2018-05-29T08:37:54.891Z,35.30
2018-05-29T08:40:24.209Z,35.30
2018-05-29T08:42:53.480Z,35.60
2018-05-29T08:45:23.632Z,36.10
2018-05-29T08:47:52.915Z,35.80
2018-05-29T08:50:22.176Z,35.80
2018-05-29T08:52:51.657Z,34.40
2018-05-29T08:55:20.817Z,35.20
2018-05-29T08:57:50.104Z,35.70
2018-05-29T09:00:19.236Z,35.40
2018-05-29T09:02:48.801Z,35.70
2018-05-29T09:05:18.516Z,35.40
2018-05-29T09:07:47.857Z,35.60
2018-05-29T09:10:17.092Z,36.10
2018-05-29T09:12:47.063Z,34.40
2018-05-29T09:15:18.785Z,34.70
2018-05-29T09:17:48.093Z,34.70
2018-05-29T09:20:17.184Z,34.40
2018-05-29T09:22:46.830Z,32.90
2018-05-29T09:25:15.776Z,32.90
2018-05-29T09:27:44.880Z,33.20
2018-05-29T09:30:14.185Z,32.70
2018-05-29T09:32:43.486Z,32.90
2018-05-29T09:35:12.772Z,32.80
2018-05-29T09:37:42.094Z,33.00
2018-05-29T09:40:11.666Z,32.90
2018-05-29T09:42:40.650Z,33.60
2018-05-29T09:45:10.772Z,33.50
2018-05-29T09:47:40.076Z,34.20
2018-05-29T09:50:09.176Z,33.50
2018-05-29T09:52:38.289Z,34.00
2018-05-29T09:55:07.982Z,34.00
2018-05-29T09:57:37.296Z,33.70
2018-05-29T10:00:06.655Z,33.60
2018-05-29T10:02:36.959Z,33.70
2018-05-29T10:05:06.213Z,33.60
2018-05-29T10:07:35.534Z,33.80
2018-05-29T10:10:04.788Z,33.80
2018-05-29T10:12:34.108Z,34.20
2018-05-29T10:15:03.406Z,33.80
2018-05-29T10:17:32.699Z,34.60
2018-05-29T10:20:01.965Z,34.70
2018-05-29T10:22:31.107Z,35.40
2018-05-29T10:25:00.368Z,34.90
2018-05-29T10:27:29.601Z,34.70
2018-05-29T10:29:59.354Z,35.40
2018-05-29T10:32:29.063Z,35.40
2018-05-29T10:34:59.361Z,35.80
2018-05-29T10:37:28.657Z,35.50
2018-05-29T10:39:57.714Z,35.60
2018-05-29T10:42:27.652Z,35.30
2018-05-29T10:44:56.955Z,35.40
2018-05-29T10:47:27.263Z,35.20
2018-05-29T10:49:56.361Z,35.10
2018-05-29T10:52:25.476Z,35.30
2018-05-29T10:54:54.757Z,35.10
2018-05-29T10:57:24.085Z,35.20
2018-05-29T10:59:53.414Z,35.00
2018-05-29T11:02:23.351Z,34.70
2018-05-29T11:04:52.676Z,34.40
2018-05-29T11:07:22.428Z,34.80
2018-05-29T11:09:51.708Z,34.50
2018-05-29T11:12:20.984Z,34.60
2018-05-29T11:14:50.284Z,35.20
2018-05-29T11:17:19.566Z,34.80
2018-05-29T11:19:48.667Z,34.60
2018-05-29T11:22:17.986Z,34.50
2018-05-29T11:24:47.254Z,34.50
2018-05-29T11:27:16.378Z,34.60
2018-05-29T11:29:45.932Z,35.30
2018-05-29T11:32:16.172Z,35.20
2018-05-29T11:34:45.516Z,35.30
2018-05-29T11:37:15.094Z,35.80
2018-05-29T11:39:44.635Z,35.60
2018-05-29T11:42:13.900Z,35.60
2018-05-29T11:44:43.529Z,35.70
2018-05-29T11:47:12.709Z,36.10
2018-05-29T11:49:42.688Z,36.90
2018-05-29T11:52:12.376Z,36.90
2018-05-29T11:54:42.605Z,37.00
2018-05-29T11:57:12.061Z,37.00
2018-05-29T11:59:41.247Z,36.90
2018-05-29T12:02:10.539Z,37.50
2018-05-29T12:04:39.824Z,37.60
2018-05-29T12:07:09.161Z,38.20
2018-05-29T12:09:38.435Z,37.80
2018-05-29T12:12:18.639Z,39.60
2018-05-29T12:14:48.697Z,39.20
2018-05-29T12:17:17.993Z,38.10
2018-05-29T12:19:47.172Z,39.40
2018-05-29T12:22:16.503Z,38.90
2018-05-29T12:24:45.815Z,38.70
2018-05-29T12:27:15.817Z,39.00
2018-05-29T12:29:45.485Z,38.40
2018-05-29T12:32:14.519Z,38.60
2018-05-29T12:34:43.641Z,39.70
2018-05-29T12:37:12.927Z,39.50
2018-05-29T12:39:42.104Z,39.70
2018-05-29T12:42:11.443Z,40.10
2018-05-29T12:44:40.745Z,40.30
2018-05-29T12:47:10.175Z,40.30
2018-05-29T12:49:39.424Z,40.40
2018-05-29T12:52:09.738Z,40.50
2018-05-29T12:54:39.226Z,41.30
2018-05-29T12:57:08.359Z,41.10
2018-05-29T12:59:37.646Z,41.60
2018-05-29T13:02:06.961Z,41.40
2018-05-29T13:04:36.183Z,41.90
2018-05-29T13:07:04.893Z,42.40
2018-05-29T13:09:34.100Z,42.20
2018-05-29T13:12:03.432Z,42.40
2018-05-29T13:14:32.625Z,42.70
2018-05-29T13:17:01.709Z,42.50
2018-05-29T13:19:30.842Z,42.30
2018-05-29T13:21:59.697Z,42.90
2018-05-29T13:24:28.823Z,43.60
2018-05-29T13:26:59.290Z,43.90
2018-05-29T13:29:28.628Z,43.90
2018-05-29T13:31:57.717Z,43.50
2018-05-29T13:34:27.799Z,43.50
2018-05-29T13:36:57.113Z,43.50
2018-05-29T13:39:26.182Z,41.50
2018-05-29T13:41:56.156Z,40.10
2018-05-29T13:44:25.902Z,39.90
2018-05-29T13:46:54.937Z,39.50
2018-05-29T13:49:24.170Z,39.50
2018-05-29T13:51:53.661Z,39.80
2018-05-29T13:54:22.959Z,39.00
2018-05-29T13:56:52.396Z,39.60
2018-05-29T13:59:22.336Z,36.60
2018-05-29T14:01:51.659Z,36.60
2018-05-29T14:04:20.957Z,36.10
2018-05-29T14:06:50.057Z,35.80
2018-05-29T14:09:19.129Z,35.20
2018-05-29T14:11:48.276Z,35.40
2018-05-29T14:14:17.581Z,35.40
2018-05-29T14:16:46.825Z,35.40
2018-05-29T14:19:15.931Z,33.70
2018-05-29T14:21:45.467Z,34.50
2018-05-29T14:24:14.527Z,34.70
2018-05-29T14:26:43.656Z,32.80
2018-05-29T14:29:12.948Z,31.60
2018-05-29T14:31:45.047Z,31.20
2018-05-29T14:34:14.765Z,30.30
2018-05-29T14:36:43.784Z,31.20
2018-05-29T14:39:12.915Z,30.80
2018-05-29T14:41:42.397Z,31.40
2018-05-29T14:44:11.748Z,31.30
2018-05-29T14:46:41.007Z,30.90
2018-05-29T14:49:10.388Z,29.50
2018-05-29T14:51:39.742Z,30.60
2018-05-29T14:54:09.938Z,29.70
2018-05-29T14:56:39.424Z,29.30
2018-05-29T14:59:08.098Z,29.00
2018-05-29T15:01:37.302Z,28.20
2018-05-29T15:04:06.607Z,26.50
2018-05-29T15:06:35.893Z,28.40
2018-05-29T15:09:05.214Z,25.20
2018-05-29T15:11:34.498Z,24.70
2018-05-29T15:14:03.511Z,22.70
2018-05-29T15:16:32.806Z,21.00
2018-05-29T15:19:02.094Z,20.50
2018-05-29T15:21:31.184Z,22.40
2018-05-29T15:24:00.710Z,20.10
2018-05-29T15:26:30.230Z,20.80
2018-05-29T15:29:00.706Z,18.50
2018-05-29T15:31:30.234Z,18.30
2018-05-29T15:33:59.770Z,16.40
2018-05-29T15:36:29.420Z,16.40
2018-05-29T15:38:58.523Z,17.10
2018-05-29T15:41:27.687Z,18.20
2018-05-29T15:43:56.953Z,17.10
2018-05-29T15:46:26.267Z,19.10
2018-05-29T15:48:56.244Z,19.10
2018-05-29T15:51:26.399Z,19.10
2018-05-29T15:53:55.866Z,19.20
2018-05-29T15:56:25.187Z,20.70
2018-05-29T15:58:54.338Z,20.20
2018-05-29T16:01:23.655Z,21.10
2018-05-29T16:03:52.774Z,21.80
2018-05-29T16:06:22.250Z,22.20
2018-05-29T16:08:51.547Z,22.60
2018-05-29T16:11:20.916Z,23.80
2018-05-29T16:13:50.203Z,21.00
2018-05-29T16:16:19.548Z,22.70
2018-05-29T16:18:49.008Z,22.60
2018-05-29T16:21:18.056Z,22.30
2018-05-29T16:23:47.146Z,21.80
2018-05-29T16:26:16.523Z,23.70
2018-05-29T16:28:45.868Z,21.10
2018-05-29T16:31:15.130Z,23.80
2018-05-29T16:33:44.451Z,22.00
2018-05-29T16:36:13.979Z,23.60
2018-05-29T16:38:43.469Z,24.30
2018-05-29T16:41:12.686Z,22.90
2018-05-29T16:43:42.069Z,21.60
2018-05-29T16:46:11.587Z,22.90
2018-05-29T16:48:40.891Z,24.20
2018-05-29T16:51:10.121Z,23.90
2018-05-29T16:53:40.096Z,25.10
2018-05-29T16:56:10.602Z,24.90
2018-05-29T16:58:39.927Z,22.90
2018-05-29T17:01:10.649Z,24.50
2018-05-29T17:03:40.169Z,24.50
2018-05-29T17:06:09.419Z,23.30
2018-05-29T17:08:38.549Z,24.60
2018-05-29T17:11:07.849Z,23.20
2018-05-29T17:13:37.118Z,22.90
2018-05-29T17:16:06.440Z,22.40
2018-05-29T17:18:35.663Z,22.20
2018-05-29T17:21:04.869Z,20.70
2018-05-29T17:23:34.368Z,19.60
2018-05-29T17:26:03.894Z,20.00
2018-05-29T17:28:34.012Z,19.80
2018-05-29T17:31:03.326Z,19.70
2018-05-29T17:33:32.558Z,16.00
2018-05-29T17:36:02.299Z,19.50
2018-05-29T17:38:32.052Z,19.70
2018-05-29T17:41:01.399Z,19.40
2018-05-29T17:43:30.886Z,21.80
2018-05-29T17:45:59.951Z,20.60
2018-05-29T17:48:29.275Z,22.20
2018-05-29T17:50:58.576Z,20.30
2018-05-29T17:53:27.841Z,19.50
2018-05-29T17:55:57.184Z,22.30
2018-05-29T17:58:26.629Z,20.00
2018-05-29T18:00:56.600Z,19.90
2018-05-29T18:03:25.943Z,19.70
2018-05-29T18:05:54.973Z,19.00
2018-05-29T18:08:24.085Z,21.70
2018-05-29T18:10:53.174Z,16.80
2018-05-29T18:13:22.713Z,16.50
2018-05-29T18:15:51.941Z,18.40
2018-05-29T18:18:21.265Z,17.30
2018-05-29T18:20:50.780Z,17.80
2018-05-29T18:23:19.901Z,18.20
2018-05-29T18:25:48.949Z,16.70
2018-05-29T18:28:18.475Z,12.70
2018-05-29T18:30:47.788Z,15.80
2018-05-29T18:33:17.298Z,18.50
2018-05-29T18:35:48.185Z,15.10
2018-05-29T18:38:17.268Z,15.10
2018-05-29T18:40:47.022Z,14.00
2018-05-29T18:43:16.284Z,14.00
2018-05-29T18:45:45.448Z,12.20
2018-05-29T18:48:14.544Z,12.70
2018-05-29T18:50:43.786Z,14.30
2018-05-29T18:53:13.297Z,10.20
2018-05-29T18:55:44.887Z,9.70
2018-05-29T18:58:15.252Z,9.50
2018-05-29T19:00:45.109Z,9.70
2018-05-29T19:03:14.386Z,10.50
2018-05-29T19:05:43.718Z,12.10
2018-05-29T19:08:12.981Z,11.40
2018-05-29T19:10:42.296Z,7.60
2018-05-29T19:13:11.613Z,11.30
2018-05-29T19:15:40.673Z,10.30
2018-05-29T19:18:10.933Z,14.10
2018-05-29T19:20:41.644Z,12.80
2018-05-29T19:23:10.958Z,12.70
2018-05-29T19:25:40.241Z,13.10
2018-05-29T19:28:09.521Z,12.20
2018-05-29T19:30:38.819Z,12.60
2018-05-29T19:33:08.068Z,12.90
2018-05-29T19:35:37.358Z,10.10
2018-05-29T19:38:06.425Z,7.90
2018-05-29T19:40:35.768Z,12.00
2018-05-29T19:43:05.046Z,12.60
2018-05-29T19:45:34.125Z,13.40
2018-05-29T19:48:03.268Z,14.40
2018-05-29T19:50:32.528Z,11.20
2018-05-29T19:53:02.682Z,15.50
2018-05-29T19:55:31.988Z,11.10
2018-05-29T19:58:01.426Z,10.90
2018-05-29T20:00:30.722Z,12.20
2018-05-29T20:03:00.224Z,12.10
2018-05-29T20:05:29.532Z,13.40
2018-05-29T20:07:58.860Z,13.50
2018-05-29T20:10:28.151Z,13.50
2018-05-29T20:12:57.235Z,13.60
2018-05-29T20:15:26.500Z,12.50
2018-05-29T20:17:56.030Z,11.30
2018-05-29T20:20:25.299Z,15.20
2018-05-29T20:22:54.429Z,13.20
2018-05-29T20:25:23.869Z,12.40
2018-05-29T20:27:53.204Z,11.40
2018-05-29T20:30:22.715Z,13.20
2018-05-29T20:32:52.237Z,11.00
2018-05-29T20:35:21.525Z,10.40
2018-05-29T20:37:50.817Z,10.00
2018-05-29T20:40:20.166Z,11.60
2018-05-29T20:42:49.298Z,13.70
2018-05-29T20:45:19.294Z,11.50
2018-05-29T20:47:48.389Z,11.50
2018-05-29T20:50:17.864Z,15.60
2018-05-29T20:52:46.951Z,14.00
2018-05-29T20:55:16.277Z,12.10
2018-05-29T20:57:45.774Z,11.60
2018-05-29T21:00:15.075Z,11.50
2018-05-29T21:02:45.717Z,11.80
2018-05-29T21:05:15.435Z,11.70
2018-05-29T21:07:45.419Z,10.30
2018-05-29T21:10:15.296Z,10.30
2018-05-29T21:12:44.616Z,15.30
2018-05-29T21:15:13.957Z,11.20
2018-05-29T21:17:43.273Z,12.80
2018-05-29T21:20:12.340Z,11.90
2018-05-29T21:22:41.594Z,11.50
2018-05-29T21:25:10.707Z,10.30
2018-05-29T21:27:39.790Z,13.20
2018-05-29T21:30:09.112Z,10.00
2018-05-29T21:32:39.488Z,10.90
2018-05-29T21:35:08.926Z,10.80
2018-05-29T21:37:38.302Z,10.50
2018-05-29T21:40:07.613Z,9.40
2018-05-29T21:42:36.712Z,8.40
2018-05-29T21:45:05.786Z,9.80
2018-05-29T21:47:35.302Z,9.40
2018-05-29T21:50:04.417Z,9.70
2018-05-29T21:52:33.751Z,11.70
2018-05-29T21:55:03.060Z,9.60
2018-05-29T21:57:32.505Z,10.20
2018-05-29T22:00:02.856Z,8.60
2018-05-29T22:02:32.205Z,8.40
2018-05-29T22:05:01.680Z,8.40
2018-05-29T22:07:30.924Z,11.20
2018-05-29T22:10:00.459Z,11.50
2018-05-29T22:12:29.496Z,9.30
2018-05-29T22:14:59.445Z,10.60
2018-05-29T22:17:28.477Z,10.50
2018-05-29T22:19:57.754Z,10.40
2018-05-29T22:22:27.259Z,8.70
2018-05-29T22:24:56.561Z,12.50
2018-05-29T22:27:25.856Z,11.40
2018-05-29T22:29:55.335Z,8.60
2018-05-29T22:32:25.097Z,10.30
2018-05-29T22:34:54.362Z,10.90
2018-05-29T22:37:23.446Z,11.20
2018-05-29T22:39:52.566Z,8.10
2018-05-29T22:42:21.741Z,9.00
2018-05-29T22:44:50.862Z,10.80
2018-05-29T22:47:19.966Z,9.60
2018-05-29T22:49:49.222Z,9.20
2018-05-29T22:52:18.446Z,7.70
2018-05-29T22:54:47.812Z,9.40
2018-05-29T22:57:18.402Z,9.90
2018-05-29T22:59:48.366Z,9.40
2018-05-29T23:02:17.903Z,9.10
2018-05-29T23:04:47.198Z,11.80
2018-05-29T23:07:16.470Z,9.80
2018-05-29T23:09:45.962Z,8.60
2018-05-29T23:12:15.332Z,9.10
2018-05-29T23:14:46.005Z,10.00
2018-05-29T23:17:15.183Z,10.00
2018-05-29T23:19:44.319Z,8.00
2018-05-29T23:22:13.565Z,7.80
2018-05-29T23:24:43.598Z,9.30
2018-05-29T23:27:13.668Z,8.60
2018-05-29T23:29:42.728Z,8.40
2018-05-29T23:32:11.836Z,8.00
2018-05-29T23:34:40.960Z,9.30
2018-05-29T23:37:10.304Z,8.70
2018-05-29T23:39:39.390Z,8.10
2018-05-29T23:42:09.048Z,6.50
2018-05-29T23:44:38.380Z,6.60
2018-05-29T23:47:07.633Z,7.70
2018-05-29T23:49:36.899Z,8.10
2018-05-29T23:52:06.431Z,8.60
2018-05-29T23:54:35.648Z,8.80
2018-05-29T23:57:04.975Z,8.00
2018-05-29T23:59:34.423Z,6.60
